createdAt,value
2022-10-17T00:00:01.948Z,1.13
2022-10-17T00:02:35.456Z,1.80
2022-10-17T00:05:07.259Z,1.40
2022-10-17T00:07:39.046Z,1.73
2022-10-17T00:10:10.837Z,1.97
2022-10-17T00:12:42.620Z,2.00
2022-10-17T00:15:14.435Z,1.50
2022-10-17T00:17:46.293Z,1.70
2022-10-17T00:20:18.075Z,1.70
2022-10-17T00:22:49.890Z,1.87
2022-10-17T00:25:21.716Z,1.13
2022-10-17T00:27:53.524Z,1.50
2022-10-17T00:30:25.361Z,1.70
2022-10-17T00:32:57.215Z,1.63
2022-10-17T00:35:29.097Z,1.60
2022-10-17T00:38:00.897Z,1.47
2022-10-17T00:40:32.777Z,2.27
2022-10-17T00:43:04.590Z,1.47
2022-10-17T00:45:36.377Z,2.43
2022-10-17T00:48:08.203Z,1.30
2022-10-17T00:50:40.026Z,1.40
2022-10-17T00:53:11.870Z,1.50
2022-10-17T00:55:43.689Z,1.57
2022-10-17T00:58:15.510Z,1.63
2022-10-17T01:00:47.305Z,1.50
2022-10-17T01:03:19.670Z,1.50
2022-10-17T01:05:51.591Z,1.80
2022-10-17T01:08:24.175Z,1.87
2022-10-17T01:10:56.021Z,2.13
2022-10-17T01:13:27.985Z,1.67
2022-10-17T01:15:59.781Z,1.67
2022-10-17T01:18:32.929Z,1.60
2022-10-17T01:21:05.230Z,3.27
2022-10-17T01:23:36.981Z,1.70
2022-10-17T01:26:08.971Z,1.87
2022-10-17T01:28:40.789Z,2.00
2022-10-17T01:31:13.070Z,1.50
2022-10-17T01:33:45.604Z,2.00
2022-10-17T01:36:17.716Z,2.10
2022-10-17T01:38:49.564Z,1.90
2022-10-17T01:41:21.538Z,1.70
2022-10-17T01:43:53.389Z,1.70
2022-10-17T01:46:25.178Z,2.50
2022-10-17T01:48:57.008Z,1.80
2022-10-17T01:51:30.326Z,1.87
2022-10-17T01:54:02.697Z,1.60
2022-10-17T01:56:34.487Z,1.90
2022-10-17T01:59:06.360Z,2.00
2022-10-17T02:01:38.241Z,2.07
2022-10-17T02:04:10.032Z,1.93
2022-10-17T02:06:41.845Z,2.20
2022-10-17T02:09:15.365Z,2.27
2022-10-17T02:11:47.360Z,2.03
2022-10-17T02:14:19.213Z,2.13
2022-10-17T02:16:51.088Z,2.03
2022-10-17T02:19:23.129Z,2.00
2022-10-17T02:21:54.938Z,2.17
2022-10-17T02:24:26.725Z,2.90
2022-10-17T02:26:59.687Z,1.93
2022-10-17T02:29:31.568Z,2.70
2022-10-17T02:32:05.067Z,2.40
2022-10-17T02:34:37.054Z,1.80
2022-10-17T02:37:09.041Z,2.33
2022-10-17T02:39:40.838Z,2.37
2022-10-17T02:42:12.861Z,2.63
2022-10-17T02:44:44.653Z,2.20
2022-10-17T02:47:18.233Z,1.90
2022-10-17T02:49:50.315Z,1.97
2022-10-17T02:52:22.117Z,2.07
2022-10-17T02:54:55.609Z,2.23
2022-10-17T02:57:28.503Z,2.40
2022-10-17T03:00:00.346Z,2.30
2022-10-17T03:02:32.443Z,1.90
2022-10-17T03:05:04.480Z,2.50
2022-10-17T03:07:36.536Z,2.17
2022-10-17T03:10:08.575Z,2.90
2022-10-17T03:12:41.129Z,2.00
2022-10-17T03:15:13.531Z,2.33
2022-10-17T03:20:18.340Z,2.20
2022-10-17T03:22:50.474Z,2.40
2022-10-17T03:25:23.125Z,2.23
2022-10-17T03:27:55.144Z,2.70
2022-10-17T03:30:27.094Z,2.50
2022-10-17T03:32:58.997Z,2.93
2022-10-17T03:35:31.311Z,2.00
2022-10-17T03:38:03.409Z,1.80
2022-10-17T03:40:35.497Z,3.27
2022-10-17T03:43:08.489Z,2.20
2022-10-17T03:45:41.352Z,2.60
2022-10-17T03:48:13.318Z,2.30
2022-10-17T03:50:45.404Z,2.60
2022-10-17T03:53:18.153Z,2.53
2022-10-17T03:55:50.455Z,2.60
2022-10-17T03:58:22.765Z,2.30
2022-10-17T04:00:55.379Z,2.20
2022-10-17T04:03:27.151Z,2.07
2022-10-17T04:05:59.009Z,2.20
2022-10-17T04:08:31.388Z,2.20
2022-10-17T04:11:10.491Z,1.93
2022-10-17T04:13:42.440Z,1.90
2022-10-17T04:16:14.266Z,2.23
2022-10-17T04:18:47.776Z,2.47
2022-10-17T04:21:19.540Z,2.13
2022-10-17T04:23:51.607Z,2.47
2022-10-17T04:26:25.109Z,2.40
2022-10-17T04:28:57.353Z,2.20
2022-10-17T04:31:29.194Z,1.90
2022-10-17T04:34:11.734Z,2.20
2022-10-17T04:36:43.615Z,2.10
2022-10-17T04:39:15.876Z,1.87
2022-10-17T04:41:47.828Z,1.90
2022-10-17T04:44:20.101Z,1.93
2022-10-17T04:46:53.881Z,2.60
2022-10-17T04:49:27.147Z,1.70
2022-10-17T04:52:00.651Z,2.20
2022-10-17T04:54:37.162Z,2.70
2022-10-17T04:57:10.659Z,1.87
2022-10-17T04:59:43.933Z,2.00
2022-10-17T05:02:17.670Z,2.30
2022-10-17T05:04:49.926Z,1.80
2022-10-17T05:07:21.985Z,2.30
2022-10-17T05:10:07.378Z,2.07
2022-10-17T05:12:39.348Z,1.93
2022-10-17T05:15:11.198Z,2.20
2022-10-17T05:17:43.265Z,2.70
2022-10-17T05:20:15.379Z,2.40
2022-10-17T05:22:47.316Z,1.80
2022-10-17T05:25:19.511Z,2.00
2022-10-17T05:27:51.317Z,1.97
2022-10-17T05:30:23.587Z,1.80
2022-10-17T05:32:57.064Z,2.73
2022-10-17T05:35:29.357Z,2.73
2022-10-17T05:38:01.424Z,2.23
2022-10-17T05:40:34.435Z,2.53
2022-10-17T05:43:07.172Z,2.77
2022-10-17T05:45:39.789Z,3.73
2022-10-17T05:48:13.291Z,2.30
2022-10-17T05:50:45.371Z,1.97
2022-10-17T05:53:18.940Z,2.40
2022-10-17T05:55:52.750Z,2.03
2022-10-17T05:58:45.518Z,2.10
2022-10-17T06:00:59.732Z,2.47
2022-10-17T06:03:31.901Z,2.20
2022-10-17T06:06:05.459Z,2.60
2022-10-17T06:08:37.763Z,2.33
2022-10-17T06:11:10.897Z,2.20
2022-10-17T06:13:43.122Z,2.00
2022-10-17T06:16:16.699Z,2.37
2022-10-17T06:21:21.003Z,2.23
2022-10-17T06:23:54.471Z,2.20
2022-10-17T06:26:28.007Z,2.20
2022-10-17T06:29:00.132Z,2.23
2022-10-17T06:31:33.898Z,2.20
2022-10-17T06:34:05.970Z,2.40
2022-10-17T06:36:37.873Z,2.47
2022-10-17T06:39:10.003Z,1.93
2022-10-17T06:41:46.164Z,2.27
2022-10-17T06:44:19.684Z,2.57
2022-10-17T06:47:09.703Z,2.70
2022-10-17T06:49:41.710Z,2.17
2022-10-17T06:52:32.059Z,2.20
2022-10-17T06:55:23.275Z,1.90
2022-10-17T06:57:57.028Z,3.67
2022-10-17T07:00:48.790Z,2.27
2022-10-17T07:03:21.591Z,2.10
2022-10-17T07:05:53.964Z,2.03
2022-10-17T07:08:26.989Z,2.20
2022-10-17T07:10:58.970Z,2.60
2022-10-17T07:13:33.467Z,1.63
2022-10-17T07:16:05.989Z,1.73
2022-10-17T07:18:39.017Z,2.23
2022-10-17T07:21:11.329Z,1.80
2022-10-17T07:23:44.878Z,1.70
2022-10-17T07:26:17.331Z,2.00
2022-10-17T07:28:49.408Z,1.80
2022-10-17T07:31:29.044Z,1.83
2022-10-17T07:34:01.134Z,2.33
2022-10-17T07:36:33.224Z,2.03
2022-10-17T07:39:07.068Z,1.60
2022-10-17T07:41:40.696Z,1.70
2022-10-17T07:44:12.751Z,1.80
2022-10-17T07:46:46.238Z,1.70
2022-10-17T07:49:18.092Z,1.50
2022-10-17T07:51:50.337Z,1.67
2022-10-17T07:54:22.320Z,1.80
2022-10-17T07:56:54.143Z,1.83
2022-10-17T07:59:25.936Z,2.00
2022-10-17T08:01:57.731Z,1.70
2022-10-17T08:04:29.557Z,2.00
2022-10-17T08:07:18.321Z,1.83
2022-10-17T08:09:34.772Z,1.60
2022-10-17T08:12:06.530Z,2.33
2022-10-17T08:14:38.353Z,1.80
2022-10-17T08:17:10.199Z,2.60
2022-10-17T08:19:42.016Z,1.80
2022-10-17T08:22:13.974Z,1.60
2022-10-17T08:24:45.731Z,2.37
2022-10-17T08:27:17.538Z,1.60
2022-10-17T08:29:49.311Z,2.23
2022-10-17T08:32:21.059Z,2.57
2022-10-17T08:34:53.020Z,1.90
2022-10-17T08:37:24.804Z,2.67
2022-10-17T08:39:56.612Z,2.10
2022-10-17T08:42:28.370Z,2.53
2022-10-17T08:45:00.196Z,2.20
2022-10-17T08:47:32.644Z,2.20
2022-10-17T08:50:04.766Z,2.10
2022-10-17T08:52:36.579Z,2.20
2022-10-17T08:55:08.490Z,2.20
2022-10-17T08:57:40.339Z,2.17
2022-10-17T09:00:12.159Z,2.03
2022-10-17T09:02:44.320Z,1.70
2022-10-17T09:05:16.246Z,2.10
2022-10-17T09:07:48.179Z,2.40
2022-10-17T09:10:20.044Z,1.93
2022-10-17T09:12:51.845Z,3.10
2022-10-17T09:15:23.763Z,2.33
2022-10-17T09:17:55.525Z,2.00
2022-10-17T09:20:27.362Z,1.80
2022-10-17T09:22:59.196Z,1.60
2022-10-17T09:25:31.021Z,1.60
2022-10-17T09:28:02.874Z,2.10
2022-10-17T09:30:50.013Z,2.00
2022-10-17T09:33:08.336Z,1.70
2022-10-17T09:35:40.126Z,1.90
2022-10-17T09:38:12.054Z,2.30
2022-10-17T09:40:43.877Z,1.57
2022-10-17T09:43:15.701Z,1.67
2022-10-17T09:45:47.519Z,1.50
2022-10-17T09:48:19.353Z,2.27
2022-10-17T09:51:02.529Z,1.60
2022-10-17T09:53:24.565Z,2.00
2022-10-17T09:55:56.377Z,2.80
2022-10-17T09:58:28.217Z,1.93
2022-10-17T10:01:00.212Z,2.00
2022-10-17T10:03:32.133Z,1.80
2022-10-17T10:06:03.912Z,2.00
2022-10-17T10:08:35.753Z,2.27
2022-10-17T10:11:07.901Z,2.00
2022-10-17T10:13:40.968Z,2.27
2022-10-17T10:16:12.838Z,1.80
2022-10-17T10:18:46.401Z,1.90
2022-10-17T10:21:18.008Z,2.20
2022-10-17T10:23:49.951Z,1.90
2022-10-17T10:26:21.917Z,2.10
2022-10-17T10:28:53.842Z,2.03
2022-10-17T10:31:25.761Z,1.87
2022-10-17T10:33:57.761Z,2.40
2022-10-17T10:36:29.759Z,2.77
2022-10-17T10:39:03.947Z,2.30
2022-10-17T10:41:35.087Z,2.60
2022-10-17T10:44:07.042Z,1.87
2022-10-17T10:46:38.809Z,1.40
2022-10-17T10:49:10.633Z,1.10
2022-10-17T10:51:42.683Z,1.80
2022-10-17T10:54:14.723Z,1.10
2022-10-17T10:56:48.802Z,1.20
2022-10-17T10:59:19.978Z,0.93
2022-10-17T11:01:51.788Z,1.20
2022-10-17T11:04:23.703Z,1.10
2022-10-17T11:06:55.567Z,1.00
2022-10-17T11:09:30.084Z,1.70
2022-10-17T11:12:00.880Z,1.03
2022-10-17T11:14:32.675Z,1.40
2022-10-17T11:17:04.466Z,1.60
2022-10-17T11:19:36.371Z,1.83
2022-10-17T11:22:08.216Z,1.80
2022-10-17T11:24:40.150Z,1.83
2022-10-17T11:27:11.964Z,1.83
2022-10-17T11:29:43.837Z,2.63
2022-10-17T11:32:15.662Z,1.97
2022-10-17T11:34:48.115Z,1.90
2022-10-17T11:37:20.027Z,1.90
2022-10-17T11:39:52.042Z,2.23
2022-10-17T11:42:23.957Z,1.77
2022-10-17T11:44:55.815Z,1.90
2022-10-17T11:47:27.638Z,1.40
2022-10-17T11:51:59.801Z,2.20
2022-10-17T11:52:51.783Z,1.53
2022-10-17T11:55:06.496Z,1.60
2022-10-17T11:57:38.645Z,1.30
2022-10-17T12:00:10.753Z,1.30
2022-10-17T12:02:42.821Z,1.23
2022-10-17T12:05:14.700Z,1.50
2022-10-17T12:07:46.595Z,1.47
2022-10-17T12:10:18.673Z,1.30
2022-10-17T12:12:50.475Z,1.00
2022-10-17T12:15:22.263Z,1.20
2022-10-17T12:17:54.073Z,1.00
2022-10-17T12:20:25.930Z,1.00
2022-10-17T12:22:57.752Z,1.30
2022-10-17T12:25:29.686Z,1.20
2022-10-17T12:28:01.711Z,0.93
2022-10-17T12:30:33.529Z,0.83
2022-10-17T12:33:07.068Z,0.70
2022-10-17T12:35:38.830Z,0.90
2022-10-17T12:38:10.636Z,0.57
2022-10-17T12:40:47.744Z,0.60
2022-10-17T12:43:15.946Z,0.70
2022-10-17T12:45:47.739Z,0.93
2022-10-17T12:48:19.538Z,0.90
2022-10-17T12:50:51.415Z,1.10
2022-10-17T12:53:23.165Z,1.00
2022-10-17T12:55:55.349Z,1.13
2022-10-17T12:58:27.174Z,0.90
2022-10-17T13:01:22.390Z,0.90
2022-10-17T13:03:32.410Z,0.90
2022-10-17T13:06:04.320Z,1.30
2022-10-17T13:08:36.173Z,1.20
2022-10-17T13:11:07.955Z,1.00
2022-10-17T13:13:39.896Z,0.87
2022-10-17T13:16:11.685Z,1.10
2022-10-17T13:18:43.895Z,1.03
2022-10-17T13:21:17.343Z,1.27
2022-10-17T13:23:49.209Z,1.00
2022-10-17T13:26:21.084Z,1.10
2022-10-17T13:28:53.171Z,1.07
2022-10-17T13:31:25.060Z,1.60
2022-10-17T13:33:56.963Z,1.97
2022-10-17T13:36:29.228Z,1.50
2022-10-17T13:39:01.092Z,1.40
2022-10-17T13:41:37.004Z,1.47
2022-10-17T13:44:06.446Z,1.60
2022-10-17T13:46:39.338Z,1.30
2022-10-17T13:49:11.708Z,1.53
2022-10-17T13:51:43.526Z,1.50
2022-10-17T13:54:15.300Z,2.43
2022-10-17T13:56:47.214Z,1.60
2022-10-17T13:59:19.294Z,1.70
2022-10-17T14:01:51.286Z,2.23
2022-10-17T14:04:23.187Z,1.93
2022-10-17T14:06:55.359Z,1.90
2022-10-17T14:09:27.173Z,1.40
2022-10-17T14:11:59.172Z,2.00
2022-10-17T14:14:41.642Z,2.17
2022-10-17T14:17:04.502Z,2.03
2022-10-17T14:19:36.311Z,2.20
2022-10-17T14:22:08.100Z,1.97
2022-10-17T14:24:39.888Z,2.20
2022-10-17T14:27:11.973Z,1.80
2022-10-17T14:29:43.745Z,1.80
2022-10-17T14:32:15.608Z,1.90
2022-10-17T14:34:47.422Z,1.87
2022-10-17T14:37:19.248Z,1.80
2022-10-17T14:39:51.078Z,1.73
2022-10-17T14:42:22.892Z,1.60
2022-10-17T14:44:54.761Z,2.07
2022-10-17T14:47:43.881Z,2.03
2022-10-17T14:50:00.442Z,1.43
2022-10-17T14:52:32.756Z,1.70
2022-10-17T14:55:04.877Z,1.60
2022-10-17T14:57:36.673Z,1.80
2022-10-17T15:00:08.468Z,1.50
2022-10-17T15:02:40.297Z,1.50
2022-10-17T15:05:13.467Z,2.10
2022-10-17T15:07:45.542Z,1.87
2022-10-17T15:10:17.312Z,1.90
2022-10-17T15:12:57.463Z,1.47
2022-10-17T15:15:22.611Z,1.67
2022-10-17T15:17:54.414Z,1.83
2022-10-17T15:20:26.240Z,1.50
2022-10-17T15:22:58.012Z,1.40
2022-10-17T15:25:29.802Z,1.60
2022-10-17T15:28:01.650Z,1.20
2022-10-17T15:30:33.433Z,1.30
2022-10-17T15:33:05.376Z,1.30
2022-10-17T15:35:37.173Z,1.40
2022-10-17T15:38:09.041Z,1.50
2022-10-17T15:40:40.856Z,1.70
2022-10-17T15:43:15.014Z,1.37
2022-10-17T15:45:46.103Z,1.23
2022-10-17T15:48:17.916Z,1.70
2022-10-17T15:50:49.789Z,1.90
2022-10-17T15:53:21.573Z,1.47
2022-10-17T15:55:53.366Z,1.20
2022-10-17T15:58:25.196Z,1.63
2022-10-17T16:00:57.082Z,1.10
2022-10-17T16:03:29.081Z,1.20
2022-10-17T16:06:01.007Z,1.20
2022-10-17T16:08:32.928Z,1.30
2022-10-17T16:11:04.715Z,1.57
2022-10-17T16:13:36.521Z,1.20
2022-10-17T16:16:08.754Z,1.10
2022-10-17T16:18:40.555Z,1.80
2022-10-17T16:21:12.361Z,1.10
2022-10-17T16:23:44.202Z,1.37
2022-10-17T16:26:15.961Z,1.13
2022-10-17T16:28:48.027Z,0.93
2022-10-17T16:31:20.033Z,1.63
2022-10-17T16:33:51.865Z,1.33
2022-10-17T16:36:23.654Z,1.00
2022-10-17T16:38:55.461Z,1.10
2022-10-17T16:41:27.250Z,1.20
2022-10-17T16:43:59.035Z,1.00
2022-10-17T16:46:30.847Z,1.20
2022-10-17T16:49:02.747Z,1.27
2022-10-17T16:51:34.630Z,1.10
2022-10-17T16:54:06.450Z,1.60
2022-10-17T16:56:38.283Z,1.27
2022-10-17T16:59:10.291Z,1.77
2022-10-17T17:01:42.144Z,0.90
2022-10-17T17:04:13.933Z,0.90
2022-10-17T17:09:17.803Z,1.13
2022-10-17T17:11:49.898Z,0.70
2022-10-17T17:14:21.901Z,1.07
2022-10-17T17:16:53.817Z,0.73
2022-10-17T17:19:25.600Z,0.83
2022-10-17T17:21:57.370Z,1.07
2022-10-17T17:24:29.231Z,1.00
2022-10-17T17:27:01.089Z,1.40
2022-10-17T17:29:32.802Z,1.10
2022-10-17T17:32:04.705Z,1.07
2022-10-17T17:34:36.485Z,1.07
2022-10-17T17:37:08.320Z,1.20
2022-10-17T17:39:40.189Z,1.10
2022-10-17T17:42:12.035Z,1.40
2022-10-17T17:44:43.880Z,1.20
2022-10-17T17:47:15.858Z,1.30
2022-10-17T17:49:47.905Z,1.17
2022-10-17T17:52:19.807Z,1.80
2022-10-17T17:54:51.860Z,1.30
2022-10-17T17:57:23.610Z,1.80
2022-10-17T17:59:55.387Z,1.10
2022-10-17T18:02:27.323Z,1.37
2022-10-17T18:04:59.177Z,1.57
2022-10-17T18:07:31.115Z,1.30
2022-10-17T18:10:02.989Z,1.60
2022-10-17T18:12:34.838Z,1.77
2022-10-17T18:15:06.743Z,2.30
2022-10-17T18:17:38.528Z,1.57
2022-10-17T18:20:10.387Z,1.73
2022-10-17T18:22:42.180Z,1.50
2022-10-17T18:25:13.985Z,1.40
2022-10-17T18:27:45.870Z,1.43
2022-10-17T18:30:19.242Z,1.33
2022-10-17T18:32:51.064Z,1.50
2022-10-17T18:35:22.854Z,1.83
2022-10-17T18:37:54.738Z,1.47
2022-10-17T18:40:26.509Z,1.30
2022-10-17T18:42:58.349Z,1.70
2022-10-17T18:45:30.188Z,2.17
2022-10-17T18:48:02.033Z,2.20
2022-10-17T18:50:33.944Z,1.60
2022-10-17T18:53:05.783Z,1.83
2022-10-17T18:55:37.626Z,1.77
2022-10-17T18:58:09.415Z,1.60
2022-10-17T19:00:41.227Z,2.20
2022-10-17T19:03:13.062Z,1.93
2022-10-17T19:05:44.821Z,1.73
2022-10-17T19:08:16.663Z,2.20
2022-10-17T19:10:48.427Z,1.80
2022-10-17T19:13:21.591Z,1.97
2022-10-17T19:15:53.641Z,2.87
2022-10-17T19:18:25.559Z,2.67
2022-10-17T19:20:57.364Z,2.10
2022-10-17T19:23:29.127Z,2.73
2022-10-17T19:26:00.908Z,2.00
2022-10-17T19:28:32.764Z,2.53
2022-10-17T19:31:04.494Z,2.50
2022-10-17T19:33:36.565Z,2.70
2022-10-17T19:36:08.392Z,2.50
2022-10-17T19:38:40.380Z,2.00
2022-10-17T19:41:12.170Z,2.43
2022-10-17T19:43:43.986Z,2.73
2022-10-17T19:46:16.025Z,2.47
2022-10-17T19:48:47.924Z,2.07
2022-10-17T19:51:19.718Z,3.40
2022-10-17T19:53:51.832Z,2.50
2022-10-17T19:56:23.760Z,2.47
2022-10-17T19:58:55.838Z,2.63
2022-10-17T20:01:27.647Z,2.70
2022-10-17T20:03:59.639Z,2.93
2022-10-17T20:06:31.415Z,2.87
2022-10-17T20:09:05.535Z,3.43
2022-10-17T20:11:37.339Z,3.10
2022-10-17T20:14:09.179Z,3.67
2022-10-17T20:16:41.072Z,3.63
2022-10-17T20:19:12.803Z,3.33
2022-10-17T20:21:44.663Z,2.93
2022-10-17T20:24:16.539Z,3.40
2022-10-17T20:26:48.392Z,3.53
2022-10-17T20:29:20.296Z,3.80
2022-10-17T20:31:52.387Z,3.90
2022-10-17T20:34:24.374Z,3.63
2022-10-17T20:36:56.523Z,3.47
2022-10-17T20:39:28.323Z,3.70
2022-10-17T20:42:00.127Z,3.37
2022-10-17T20:44:32.002Z,3.73
2022-10-17T20:47:04.632Z,3.53
2022-10-17T20:49:36.645Z,4.00
2022-10-17T20:52:08.449Z,4.20
2022-10-17T20:54:40.241Z,3.53
2022-10-17T20:57:12.015Z,3.57
2022-10-17T20:59:43.841Z,2.87
2022-10-17T21:02:15.655Z,3.27
2022-10-17T21:04:48.051Z,3.93
2022-10-17T21:07:19.864Z,3.63
2022-10-17T21:09:51.741Z,2.40
2022-10-17T21:12:31.408Z,3.30
2022-10-17T21:14:57.006Z,3.60
2022-10-17T21:17:28.813Z,3.50
2022-10-17T21:20:00.699Z,3.70
2022-10-17T21:22:32.895Z,3.60
2022-10-17T21:25:04.839Z,3.30
2022-10-17T21:27:36.595Z,3.93
2022-10-17T21:32:55.336Z,3.37
2022-10-17T21:35:13.853Z,3.47
2022-10-17T21:37:45.649Z,3.50
2022-10-17T21:40:17.441Z,3.63
2022-10-17T21:42:49.500Z,3.27
2022-10-17T21:45:25.877Z,3.43
2022-10-17T21:48:12.154Z,3.40
2022-10-17T21:50:29.121Z,3.07
2022-10-17T21:53:01.090Z,2.50
2022-10-17T21:55:32.963Z,3.30
2022-10-17T21:58:04.752Z,3.37
2022-10-17T22:00:37.207Z,3.13
2022-10-17T22:03:09.297Z,3.53
2022-10-17T22:05:41.102Z,3.10
2022-10-17T22:08:12.890Z,3.47
2022-10-17T22:10:44.879Z,3.40
2022-10-17T22:13:16.683Z,3.47
2022-10-17T22:15:48.476Z,3.23
2022-10-17T22:18:20.356Z,3.40
2022-10-17T22:20:52.406Z,3.50
2022-10-17T22:23:24.255Z,3.67
2022-10-17T22:25:56.054Z,4.53
2022-10-17T22:28:27.891Z,3.43
2022-10-17T22:30:59.772Z,4.07
2022-10-17T22:33:31.634Z,4.10
2022-10-17T22:36:03.460Z,3.43
2022-10-17T22:38:35.244Z,3.37
2022-10-17T22:41:07.047Z,3.70
2022-10-17T22:43:39.692Z,3.20
2022-10-17T22:46:11.526Z,3.13
2022-10-17T22:48:43.422Z,3.20
2022-10-17T22:51:15.316Z,3.43
2022-10-17T22:53:47.237Z,2.80
2022-10-17T22:56:19.109Z,3.20
2022-10-17T22:58:50.956Z,2.77
2022-10-17T23:01:22.894Z,3.00
2022-10-17T23:03:55.021Z,2.73
2022-10-17T23:06:26.814Z,2.57
2022-10-17T23:08:58.624Z,3.07
2022-10-17T23:11:30.437Z,3.07
2022-10-17T23:14:02.241Z,2.60
2022-10-17T23:16:34.120Z,3.80
2022-10-17T23:19:05.889Z,3.43
2022-10-17T23:21:37.675Z,2.73
2022-10-17T23:24:09.495Z,3.50
2022-10-17T23:26:41.330Z,3.03
2022-10-17T23:29:13.556Z,3.50
2022-10-17T23:31:45.345Z,3.17
2022-10-17T23:34:17.166Z,2.77
2022-10-17T23:36:48.955Z,2.80
2022-10-17T23:39:21.424Z,3.00
2022-10-17T23:41:53.313Z,2.83
2022-10-17T23:44:25.130Z,2.73
2022-10-17T23:46:56.961Z,2.53
2022-10-17T23:49:28.786Z,2.70
2022-10-17T23:52:00.671Z,2.93
2022-10-17T23:54:32.633Z,2.70
2022-10-17T23:57:04.559Z,2.93
2022-10-17T23:59:37.958Z,3.43
